sensor_id;sensor_type;location;lat;lon;timestamp;temperature;humidity
15359;DHT22;7779;49.596;11.070;2023-07-13T00:01:51;23.40;50.00
15359;DHT22;7779;49.596;11.070;2023-07-13T00:04:20;23.40;50.00
15359;DHT22;7779;49.596;11.070;2023-07-13T00:06:48;23.40;50.00
15359;DHT22;7779;49.596;11.070;2023-07-13T00:09:17;23.40;49.90
15359;DHT22;7779;49.596;11.070;2023-07-13T00:11:44;23.40;50.00
15359;DHT22;7779;49.596;11.070;2023-07-13T00:14:13;23.40;49.90
15359;DHT22;7779;49.596;11.070;2023-07-13T00:16:41;23.40;49.90
15359;DHT22;7779;49.596;11.070;2023-07-13T00:19:09;23.40;49.80
15359;DHT22;7779;49.596;11.070;2023-07-13T00:21:39;23.40;49.80
15359;DHT22;7779;49.596;11.070;2023-07-13T00:24:07;23.40;49.80
15359;DHT22;7779;49.596;11.070;2023-07-13T00:26:35;23.40;49.70
15359;DHT22;7779;49.596;11.070;2023-07-13T00:29:01;23.40;49.70
15359;DHT22;7779;49.596;11.070;2023-07-13T00:31:28;23.40;49.70
15359;DHT22;7779;49.596;11.070;2023-07-13T00:33:54;23.40;49.70
15359;DHT22;7779;49.596;11.070;2023-07-13T00:36:20;23.30;49.40
15359;DHT22;7779;49.596;11.070;2023-07-13T00:38:46;23.30;49.70
15359;DHT22;7779;49.596;11.070;2023-07-13T00:41:13;23.20;49.60
15359;DHT22;7779;49.596;11.070;2023-07-13T00:43:39;23.20;49.70
15359;DHT22;7779;49.596;11.070;2023-07-13T00:46:36;23.20;49.80
15359;DHT22;7779;49.596;11.070;2023-07-13T00:49:05;23.20;50.30
15359;DHT22;7779;49.596;11.070;2023-07-13T00:51:40;23.10;49.80
15359;DHT22;7779;49.596;11.070;2023-07-13T00:54:14;23.10;50.00
15359;DHT22;7779;49.596;11.070;2023-07-13T00:56:43;23.10;49.90
15359;DHT22;7779;49.596;11.070;2023-07-13T00:59:12;23.00;49.90
15359;DHT22;7779;49.596;11.070;2023-07-13T01:01:40;23.00;49.90
15359;DHT22;7779;49.596;11.070;2023-07-13T01:04:06;22.90;49.90
15359;DHT22;7779;49.596;11.070;2023-07-13T01:06:37;22.90;49.90
15359;DHT22;7779;49.596;11.070;2023-07-13T01:09:07;22.90;50.20
15359;DHT22;7779;49.596;11.070;2023-07-13T01:11:33;22.80;50.00
15359;DHT22;7779;49.596;11.070;2023-07-13T01:14:01;22.80;50.10
15359;DHT22;7779;49.596;11.070;2023-07-13T01:16:32;22.70;50.10
15359;DHT22;7779;49.596;11.070;2023-07-13T01:18:59;22.70;50.20
15359;DHT22;7779;49.596;11.070;2023-07-13T01:21:32;22.60;50.10
15359;DHT22;7779;49.596;11.070;2023-07-13T01:23:58;22.60;51.00
15359;DHT22;7779;49.596;11.070;2023-07-13T01:26:25;22.50;50.10
15359;DHT22;7779;49.596;11.070;2023-07-13T01:28:51;22.50;50.20
15359;DHT22;7779;49.596;11.070;2023-07-13T01:31:17;22.40;50.30
15359;DHT22;7779;49.596;11.070;2023-07-13T01:33:43;22.40;50.30
15359;DHT22;7779;49.596;11.070;2023-07-13T01:36:10;22.30;50.30
15359;DHT22;7779;49.596;11.070;2023-07-13T01:38:37;22.30;50.40
15359;DHT22;7779;49.596;11.070;2023-07-13T01:41:03;22.30;50.50
15359;DHT22;7779;49.596;11.070;2023-07-13T01:43:29;22.20;50.40
15359;DHT22;7779;49.596;11.070;2023-07-13T01:45:55;22.20;50.50
15359;DHT22;7779;49.596;11.070;2023-07-13T01:48:21;22.10;50.50
15359;DHT22;7779;49.596;11.070;2023-07-13T01:50:48;22.10;50.60
15359;DHT22;7779;49.596;11.070;2023-07-13T01:53:14;22.00;50.60
15359;DHT22;7779;49.596;11.070;2023-07-13T01:55:39;22.00;50.70
15359;DHT22;7779;49.596;11.070;2023-07-13T01:58:06;21.90;50.70
15359;DHT22;7779;49.596;11.070;2023-07-13T02:00:32;21.90;50.70
15359;DHT22;7779;49.596;11.070;2023-07-13T02:02:58;21.90;50.80
15359;DHT22;7779;49.596;11.070;2023-07-13T02:05:24;21.90;50.90
15359;DHT22;7779;49.596;11.070;2023-07-13T02:07:50;21.80;50.90
15359;DHT22;7779;49.596;11.070;2023-07-13T02:10:16;21.80;50.90
15359;DHT22;7779;49.596;11.070;2023-07-13T02:12:42;21.70;51.00
15359;DHT22;7779;49.596;11.070;2023-07-13T02:15:09;21.60;51.10
15359;DHT22;7779;49.596;11.070;2023-07-13T02:17:36;21.60;51.00
15359;DHT22;7779;49.596;11.070;2023-07-13T02:20:03;21.60;51.10
15359;DHT22;7779;49.596;11.070;2023-07-13T02:22:30;21.50;51.10
15359;DHT22;7779;49.596;11.070;2023-07-13T02:24:56;21.40;51.20
15359;DHT22;7779;49.596;11.070;2023-07-13T02:27:22;21.40;51.30
15359;DHT22;7779;49.596;11.070;2023-07-13T02:29:49;21.30;51.30
15359;DHT22;7779;49.596;11.070;2023-07-13T02:32:17;21.30;51.40
15359;DHT22;7779;49.596;11.070;2023-07-13T02:34:43;21.20;51.40
15359;DHT22;7779;49.596;11.070;2023-07-13T02:37:09;21.20;51.60
15359;DHT22;7779;49.596;11.070;2023-07-13T02:39:35;21.10;51.60
15359;DHT22;7779;49.596;11.070;2023-07-13T02:42:03;21.10;51.80
15359;DHT22;7779;49.596;11.070;2023-07-13T02:44:29;21.00;51.80
15359;DHT22;7779;49.596;11.070;2023-07-13T02:46:55;21.00;51.90
15359;DHT22;7779;49.596;11.070;2023-07-13T02:49:21;20.90;52.00
15359;DHT22;7779;49.596;11.070;2023-07-13T02:51:47;20.80;52.00
15359;DHT22;7779;49.596;11.070;2023-07-13T02:54:13;20.80;52.10
15359;DHT22;7779;49.596;11.070;2023-07-13T02:56:40;20.70;52.10
15359;DHT22;7779;49.596;11.070;2023-07-13T02:59:06;20.70;52.20
15359;DHT22;7779;49.596;11.070;2023-07-13T03:01:32;20.60;52.30
15359;DHT22;7779;49.596;11.070;2023-07-13T03:04:01;20.60;52.40
15359;DHT22;7779;49.596;11.070;2023-07-13T03:06:27;20.50;52.50
15359;DHT22;7779;49.596;11.070;2023-07-13T03:08:56;20.50;52.60
15359;DHT22;7779;49.596;11.070;2023-07-13T03:11:23;20.40;52.70
15359;DHT22;7779;49.596;11.070;2023-07-13T03:13:58;20.30;52.60
15359;DHT22;7779;49.596;11.070;2023-07-13T03:16:25;20.30;52.70
15359;DHT22;7779;49.596;11.070;2023-07-13T03:18:52;20.20;52.80
15359;DHT22;7779;49.596;11.070;2023-07-13T03:21:18;20.20;52.90
15359;DHT22;7779;49.596;11.070;2023-07-13T03:23:43;19.60;52.60
15359;DHT22;7779;49.596;11.070;2023-07-13T03:26:13;20.10;53.40
15359;DHT22;7779;49.596;11.070;2023-07-13T03:28:42;20.00;53.20
15359;DHT22;7779;49.596;11.070;2023-07-13T03:31:18;19.90;53.10
15359;DHT22;7779;49.596;11.070;2023-07-13T03:33:47;19.90;53.30
15359;DHT22;7779;49.596;11.070;2023-07-13T03:36:22;19.80;53.40
15359;DHT22;7779;49.596;11.070;2023-07-13T03:38:59;19.80;54.10
15359;DHT22;7779;49.596;11.070;2023-07-13T03:41:38;19.70;53.70
15359;DHT22;7779;49.596;11.070;2023-07-13T03:44:04;19.70;53.80
15359;DHT22;7779;49.596;11.070;2023-07-13T03:46:30;19.60;53.90
15359;DHT22;7779;49.596;11.070;2023-07-13T03:48:57;19.60;54.10
15359;DHT22;7779;49.596;11.070;2023-07-13T03:51:23;19.50;54.20
15359;DHT22;7779;49.596;11.070;2023-07-13T03:53:49;19.50;54.40
15359;DHT22;7779;49.596;11.070;2023-07-13T03:56:19;19.50;54.60
15359;DHT22;7779;49.596;11.070;2023-07-13T03:58:46;19.40;54.70
15359;DHT22;7779;49.596;11.070;2023-07-13T04:01:18;19.40;54.90
15359;DHT22;7779;49.596;11.070;2023-07-13T04:03:45;19.30;54.80
15359;DHT22;7779;49.596;11.070;2023-07-13T04:06:18;19.40;55.00
15359;DHT22;7779;49.596;11.070;2023-07-13T04:08:48;19.40;55.40
15359;DHT22;7779;49.596;11.070;2023-07-13T04:11:17;19.40;55.10
15359;DHT22;7779;49.596;11.070;2023-07-13T04:13:44;19.40;55.10
15359;DHT22;7779;49.596;11.070;2023-07-13T04:16:11;19.40;55.60
15359;DHT22;7779;49.596;11.070;2023-07-13T04:18:37;19.40;55.30
15359;DHT22;7779;49.596;11.070;2023-07-13T04:21:03;19.40;55.20
15359;DHT22;7779;49.596;11.070;2023-07-13T04:23:29;19.50;55.30
15359;DHT22;7779;49.596;11.070;2023-07-13T04:25:55;19.50;55.40
15359;DHT22;7779;49.596;11.070;2023-07-13T04:28:26;19.50;55.50
15359;DHT22;7779;49.596;11.070;2023-07-13T04:30:53;19.60;55.70
15359;DHT22;7779;49.596;11.070;2023-07-13T04:33:19;19.60;55.40
15359;DHT22;7779;49.596;11.070;2023-07-13T04:35:49;19.60;55.40
15359;DHT22;7779;49.596;11.070;2023-07-13T04:38:25;19.60;55.30
15359;DHT22;7779;49.596;11.070;2023-07-13T04:40:56;19.70;55.40
15359;DHT22;7779;49.596;11.070;2023-07-13T04:43:23;19.70;55.60
15359;DHT22;7779;49.596;11.070;2023-07-13T04:45:51;19.80;55.70
15359;DHT22;7779;49.596;11.070;2023-07-13T04:48:17;19.90;55.80
15359;DHT22;7779;49.596;11.070;2023-07-13T04:50:45;19.90;55.70
15359;DHT22;7779;49.596;11.070;2023-07-13T04:53:12;20.00;55.70
15359;DHT22;7779;49.596;11.070;2023-07-13T04:55:38;20.10;55.50
15359;DHT22;7779;49.596;11.070;2023-07-13T04:58:04;20.20;55.50
15359;DHT22;7779;49.596;11.070;2023-07-13T05:00:30;20.20;55.40
15359;DHT22;7779;49.596;11.070;2023-07-13T05:02:57;20.30;55.30
15359;DHT22;7779;49.596;11.070;2023-07-13T05:05:25;20.30;55.30
15359;DHT22;7779;49.596;11.070;2023-07-13T05:07:52;20.40;55.20
15359;DHT22;7779;49.596;11.070;2023-07-13T05:10:19;20.50;55.10
15359;DHT22;7779;49.596;11.070;2023-07-13T05:12:45;20.50;54.90
15359;DHT22;7779;49.596;11.070;2023-07-13T05:15:11;20.50;54.70
15359;DHT22;7779;49.596;11.070;2023-07-13T05:17:37;20.60;54.70
15359;DHT22;7779;49.596;11.070;2023-07-13T05:20:05;20.60;54.60
15359;DHT22;7779;49.596;11.070;2023-07-13T05:22:32;20.70;54.60
15359;DHT22;7779;49.596;11.070;2023-07-13T05:25:01;20.80;54.70
15359;DHT22;7779;49.596;11.070;2023-07-13T05:27:27;20.90;54.70
15359;DHT22;7779;49.596;11.070;2023-07-13T05:29:53;20.90;54.50
15359;DHT22;7779;49.596;11.070;2023-07-13T05:32:19;21.10;55.00
15359;DHT22;7779;49.596;11.070;2023-07-13T05:34:44;21.20;54.70
15359;DHT22;7779;49.596;11.070;2023-07-13T05:37:10;21.30;54.70
15359;DHT22;7779;49.596;11.070;2023-07-13T05:39:36;21.50;54.70
15359;DHT22;7779;49.596;11.070;2023-07-13T05:42:02;21.70;54.70
15359;DHT22;7779;49.596;11.070;2023-07-13T05:44:28;21.90;54.60
15359;DHT22;7779;49.596;11.070;2023-07-13T05:46:54;22.10;54.50
15359;DHT22;7779;49.596;11.070;2023-07-13T05:49:22;22.30;54.30
15359;DHT22;7779;49.596;11.070;2023-07-13T05:51:48;22.50;54.10
15359;DHT22;7779;49.596;11.070;2023-07-13T05:54:14;22.60;53.80
15359;DHT22;7779;49.596;11.070;2023-07-13T05:56:40;22.80;53.40
15359;DHT22;7779;49.596;11.070;2023-07-13T05:59:06;23.00;53.20
15359;DHT22;7779;49.596;11.070;2023-07-13T06:01:32;23.10;52.80
15359;DHT22;7779;49.596;11.070;2023-07-13T06:03:58;23.20;52.70
15359;DHT22;7779;49.596;11.070;2023-07-13T06:06:24;23.30;52.50
15359;DHT22;7779;49.596;11.070;2023-07-13T06:08:50;23.50;52.40
15359;DHT22;7779;49.596;11.070;2023-07-13T06:11:21;23.60;52.30
15359;DHT22;7779;49.596;11.070;2023-07-13T06:13:49;23.70;51.80
15359;DHT22;7779;49.596;11.070;2023-07-13T06:16:15;23.80;51.70
15359;DHT22;7779;49.596;11.070;2023-07-13T06:18:42;23.90;51.40
15359;DHT22;7779;49.596;11.070;2023-07-13T06:21:09;24.00;51.20
15359;DHT22;7779;49.596;11.070;2023-07-13T06:23:36;24.00;51.00
15359;DHT22;7779;49.596;11.070;2023-07-13T06:26:03;24.10;51.00
15359;DHT22;7779;49.596;11.070;2023-07-13T06:28:30;24.20;51.10
15359;DHT22;7779;49.596;11.070;2023-07-13T06:30:58;24.40;51.00
15359;DHT22;7779;49.596;11.070;2023-07-13T06:33:24;24.50;51.00
15359;DHT22;7779;49.596;11.070;2023-07-13T06:35:51;24.80;51.10
15359;DHT22;7779;49.596;11.070;2023-07-13T06:38:17;25.00;51.00
15359;DHT22;7779;49.596;11.070;2023-07-13T06:40:43;25.20;50.90
15359;DHT22;7779;49.596;11.070;2023-07-13T06:43:09;25.50;50.60
15359;DHT22;7779;49.596;11.070;2023-07-13T06:45:44;25.70;50.30
15359;DHT22;7779;49.596;11.070;2023-07-13T06:48:13;25.90;49.40
15359;DHT22;7779;49.596;11.070;2023-07-13T06:50:39;26.00;49.20
15359;DHT22;7779;49.596;11.070;2023-07-13T06:53:06;26.00;48.50
15359;DHT22;7779;49.596;11.070;2023-07-13T06:55:32;26.10;48.00
15359;DHT22;7779;49.596;11.070;2023-07-13T06:57:57;26.10;47.60
15359;DHT22;7779;49.596;11.070;2023-07-13T07:00:23;26.00;47.40
15359;DHT22;7779;49.596;11.070;2023-07-13T07:02:49;26.00;47.40
15359;DHT22;7779;49.596;11.070;2023-07-13T07:05:15;25.90;47.40
15359;DHT22;7779;49.596;11.070;2023-07-13T07:07:40;25.90;47.50
15359;DHT22;7779;49.596;11.070;2023-07-13T07:10:07;25.90;47.50
15359;DHT22;7779;49.596;11.070;2023-07-13T07:12:33;25.90;47.60
15359;DHT22;7779;49.596;11.070;2023-07-13T07:14:59;26.00;47.60
15359;DHT22;7779;49.596;11.070;2023-07-13T07:17:24;26.00;47.40
15359;DHT22;7779;49.596;11.070;2023-07-13T07:19:51;26.10;47.30
15359;DHT22;7779;49.596;11.070;2023-07-13T07:22:20;26.20;47.00
15359;DHT22;7779;49.596;11.070;2023-07-13T07:24:46;26.20;46.80
15359;DHT22;7779;49.596;11.070;2023-07-13T07:27:12;26.20;46.50
15359;DHT22;7779;49.596;11.070;2023-07-13T07:29:37;26.20;46.30
15359;DHT22;7779;49.596;11.070;2023-07-13T07:32:04;26.30;46.10
15359;DHT22;7779;49.596;11.070;2023-07-13T07:34:30;26.30;45.90
15359;DHT22;7779;49.596;11.070;2023-07-13T07:37:00;26.30;45.80
15359;DHT22;7779;49.596;11.070;2023-07-13T07:39:28;26.40;45.70
15359;DHT22;7779;49.596;11.070;2023-07-13T07:41:55;26.40;45.70
15359;DHT22;7779;49.596;11.070;2023-07-13T07:44:22;26.30;45.40
15359;DHT22;7779;49.596;11.070;2023-07-13T07:46:49;26.40;45.30
15359;DHT22;7779;49.596;11.070;2023-07-13T07:49:15;26.40;45.40
15359;DHT22;7779;49.596;11.070;2023-07-13T07:51:41;26.50;45.60
15359;DHT22;7779;49.596;11.070;2023-07-13T07:54:07;26.50;45.70
15359;DHT22;7779;49.596;11.070;2023-07-13T07:56:33;26.60;45.70
15359;DHT22;7779;49.596;11.070;2023-07-13T07:58:59;26.70;45.60
15359;DHT22;7779;49.596;11.070;2023-07-13T08:01:25;26.80;45.50
15359;DHT22;7779;49.596;11.070;2023-07-13T08:03:50;26.90;46.00
15359;DHT22;7779;49.596;11.070;2023-07-13T08:06:16;27.10;43.30
15359;DHT22;7779;49.596;11.070;2023-07-13T08:08:45;27.10;44.70
15359;DHT22;7779;49.596;11.070;2023-07-13T08:11:11;27.20;44.20
15359;DHT22;7779;49.596;11.070;2023-07-13T08:13:37;27.30;43.80
15359;DHT22;7779;49.596;11.070;2023-07-13T08:16:05;27.30;43.50
15359;DHT22;7779;49.596;11.070;2023-07-13T08:18:31;27.30;43.30
15359;DHT22;7779;49.596;11.070;2023-07-13T08:20:57;27.30;43.20
15359;DHT22;7779;49.596;11.070;2023-07-13T08:23:25;27.30;43.20
15359;DHT22;7779;49.596;11.070;2023-07-13T08:25:54;27.30;43.10
15359;DHT22;7779;49.596;11.070;2023-07-13T08:28:21;27.40;43.30
15359;DHT22;7779;49.596;11.070;2023-07-13T08:30:47;27.40;42.80
15359;DHT22;7779;49.596;11.070;2023-07-13T08:33:18;27.40;42.80
15359;DHT22;7779;49.596;11.070;2023-07-13T08:35:50;27.40;42.70
15359;DHT22;7779;49.596;11.070;2023-07-13T08:38:17;27.50;41.90
15359;DHT22;7779;49.596;11.070;2023-07-13T08:40:44;27.50;42.00
15359;DHT22;7779;49.596;11.070;2023-07-13T08:43:26;27.50;41.60
15359;DHT22;7779;49.596;11.070;2023-07-13T08:46:15;27.50;41.30
15359;DHT22;7779;49.596;11.070;2023-07-13T08:48:54;27.50;40.70
15359;DHT22;7779;49.596;11.070;2023-07-13T08:51:29;27.50;40.90
15359;DHT22;7779;49.596;11.070;2023-07-13T08:54:35;27.60;40.40
15359;DHT22;7779;49.596;11.070;2023-07-13T08:57:17;27.60;39.30
15359;DHT22;7779;49.596;11.070;2023-07-13T08:59:45;27.50;39.50
15359;DHT22;7779;49.596;11.070;2023-07-13T09:02:17;27.60;40.10
15359;DHT22;7779;49.596;11.070;2023-07-13T09:05:15;27.60;39.50
15359;DHT22;7779;49.596;11.070;2023-07-13T09:07:58;27.50;38.80
15359;DHT22;7779;49.596;11.070;2023-07-13T09:17:28;27.40;38.40
15359;DHT22;7779;49.596;11.070;2023-07-13T09:20:29;27.40;38.80
15359;DHT22;7779;49.596;11.070;2023-07-13T09:23:01;27.40;38.60
15359;DHT22;7779;49.596;11.070;2023-07-13T09:25:33;27.50;39.30
15359;DHT22;7779;49.596;11.070;2023-07-13T09:31:15;27.60;38.40
15359;DHT22;7779;49.596;11.070;2023-07-13T09:33:47;27.60;38.30
15359;DHT22;7779;49.596;11.070;2023-07-13T09:36:29;27.60;38.30
15359;DHT22;7779;49.596;11.070;2023-07-13T09:39:27;27.70;37.00
15359;DHT22;7779;49.596;11.070;2023-07-13T09:42:15;27.60;36.30
15359;DHT22;7779;49.596;11.070;2023-07-13T09:45:00;27.60;36.60
15359;DHT22;7779;49.596;11.070;2023-07-13T09:47:33;27.60;36.00
15359;DHT22;7779;49.596;11.070;2023-07-13T09:50:09;27.60;37.20
15359;DHT22;7779;49.596;11.070;2023-07-13T09:52:45;27.50;37.00
15359;DHT22;7779;49.596;11.070;2023-07-13T09:55:26;27.50;36.70
15359;DHT22;7779;49.596;11.070;2023-07-13T09:58:22;27.50;36.70
15359;DHT22;7779;49.596;11.070;2023-07-13T10:00:58;27.50;36.70
15359;DHT22;7779;49.596;11.070;2023-07-13T10:03:34;27.50;36.90
15359;DHT22;7779;49.596;11.070;2023-07-13T10:06:13;27.40;36.70
15359;DHT22;7779;49.596;11.070;2023-07-13T10:08:47;27.40;36.60
15359;DHT22;7779;49.596;11.070;2023-07-13T10:11:18;27.40;36.70
15359;DHT22;7779;49.596;11.070;2023-07-13T10:13:52;27.40;36.80
15359;DHT22;7779;49.596;11.070;2023-07-13T10:16:22;27.30;36.60
15359;DHT22;7779;49.596;11.070;2023-07-13T10:18:53;27.30;36.60
15359;DHT22;7779;49.596;11.070;2023-07-13T10:21:33;27.30;36.40
15359;DHT22;7779;49.596;11.070;2023-07-13T10:24:10;27.30;36.50
15359;DHT22;7779;49.596;11.070;2023-07-13T10:26:48;27.40;36.80
15359;DHT22;7779;49.596;11.070;2023-07-13T10:29:20;27.50;37.20
15359;DHT22;7779;49.596;11.070;2023-07-13T10:31:49;27.60;36.90
15359;DHT22;7779;49.596;11.070;2023-07-13T10:34:15;27.70;36.80
15359;DHT22;7779;49.596;11.070;2023-07-13T10:36:44;27.70;36.40
15359;DHT22;7779;49.596;11.070;2023-07-13T10:39:27;27.80;36.10
15359;DHT22;7779;49.596;11.070;2023-07-13T10:42:02;27.80;34.60
15359;DHT22;7779;49.596;11.070;2023-07-13T10:44:31;27.90;35.50
15359;DHT22;7779;49.596;11.070;2023-07-13T10:47:01;27.90;35.90
15359;DHT22;7779;49.596;11.070;2023-07-13T10:49:40;27.90;35.70
15359;DHT22;7779;49.596;11.070;2023-07-13T10:52:45;27.90;35.70
15359;DHT22;7779;49.596;11.070;2023-07-13T10:55:32;27.90;34.80
15359;DHT22;7779;49.596;11.070;2023-07-13T10:58:22;27.90;34.80
15359;DHT22;7779;49.596;11.070;2023-07-13T11:01:38;27.90;34.60
15359;DHT22;7779;49.596;11.070;2023-07-13T11:03:47;27.90;35.40
15359;DHT22;7779;49.596;11.070;2023-07-13T11:09:34;28.00;35.50
15359;DHT22;7779;49.596;11.070;2023-07-13T11:22:46;28.00;35.20
15359;DHT22;7779;49.596;11.070;2023-07-13T11:27:51;28.20;35.40
15359;DHT22;7779;49.596;11.070;2023-07-13T11:36:27;28.40;34.90
15359;DHT22;7779;49.596;11.070;2023-07-13T11:39:04;28.50;34.70
15359;DHT22;7779;49.596;11.070;2023-07-13T11:41:59;28.60;35.10
15359;DHT22;7779;49.596;11.070;2023-07-13T11:44:30;28.60;34.80
15359;DHT22;7779;49.596;11.070;2023-07-13T11:47:00;28.60;34.70
15359;DHT22;7779;49.596;11.070;2023-07-13T11:49:43;28.60;34.60
15359;DHT22;7779;49.596;11.070;2023-07-13T11:52:14;28.70;34.30
15359;DHT22;7779;49.596;11.070;2023-07-13T11:54:53;28.80;34.70
15359;DHT22;7779;49.596;11.070;2023-07-13T11:57:26;28.80;34.20
15359;DHT22;7779;49.596;11.070;2023-07-13T11:59:54;28.90;34.40
15359;DHT22;7779;49.596;11.070;2023-07-13T12:02:33;28.90;34.40
15359;DHT22;7779;49.596;11.070;2023-07-13T12:05:04;29.00;33.80
15359;DHT22;7779;49.596;11.070;2023-07-13T12:07:33;28.90;34.10
15359;DHT22;7779;49.596;11.070;2023-07-13T12:12:36;29.00;33.80
15359;DHT22;7779;49.596;11.070;2023-07-13T12:15:07;28.90;34.10
15359;DHT22;7779;49.596;11.070;2023-07-13T12:17:34;29.00;34.00
15359;DHT22;7779;49.596;11.070;2023-07-13T12:20:03;29.00;34.00
15359;DHT22;7779;49.596;11.070;2023-07-13T12:22:39;29.00;34.00
15359;DHT22;7779;49.596;11.070;2023-07-13T12:25:12;29.00;34.10
15359;DHT22;7779;49.596;11.070;2023-07-13T12:27:38;29.00;34.10
15359;DHT22;7779;49.596;11.070;2023-07-13T12:30:15;29.10;34.20
15359;DHT22;7779;49.596;11.070;2023-07-13T12:33:11;29.10;33.90
15359;DHT22;7779;49.596;11.070;2023-07-13T12:35:45;29.10;33.30
15359;DHT22;7779;49.596;11.070;2023-07-13T12:38:16;29.20;33.60
15359;DHT22;7779;49.596;11.070;2023-07-13T12:40:42;29.20;33.80
15359;DHT22;7779;49.596;11.070;2023-07-13T12:43:14;29.20;33.80
15359;DHT22;7779;49.596;11.070;2023-07-13T12:45:56;29.20;33.40
15359;DHT22;7779;49.596;11.070;2023-07-13T12:48:27;29.20;33.20
15359;DHT22;7779;49.596;11.070;2023-07-13T12:50:54;29.20;33.70
15359;DHT22;7779;49.596;11.070;2023-07-13T12:53:29;29.20;33.80
15359;DHT22;7779;49.596;11.070;2023-07-13T12:56:02;29.20;33.10
15359;DHT22;7779;49.596;11.070;2023-07-13T12:58:37;29.20;33.80
15359;DHT22;7779;49.596;11.070;2023-07-13T13:01:04;29.20;33.70
15359;DHT22;7779;49.596;11.070;2023-07-13T13:03:37;29.20;33.70
15359;DHT22;7779;49.596;11.070;2023-07-13T13:08:49;29.20;33.20
15359;DHT22;7779;49.596;11.070;2023-07-13T13:11:17;29.20;33.70
15359;DHT22;7779;49.596;11.070;2023-07-13T13:13:45;29.20;33.70
15359;DHT22;7779;49.596;11.070;2023-07-13T13:16:17;29.20;33.80
15359;DHT22;7779;49.596;11.070;2023-07-13T13:18:44;29.20;33.70
15359;DHT22;7779;49.596;11.070;2023-07-13T13:21:11;29.20;33.70
15359;DHT22;7779;49.596;11.070;2023-07-13T13:23:37;29.20;33.60
15359;DHT22;7779;49.596;11.070;2023-07-13T13:26:05;29.20;33.70
15359;DHT22;7779;49.596;11.070;2023-07-13T13:28:36;29.20;33.70
15359;DHT22;7779;49.596;11.070;2023-07-13T13:31:01;29.20;33.70
15359;DHT22;7779;49.596;11.070;2023-07-13T13:33:27;29.20;33.60
15359;DHT22;7779;49.596;11.070;2023-07-13T13:35:53;29.30;33.60
15359;DHT22;7779;49.596;11.070;2023-07-13T13:38:28;29.30;33.40
15359;DHT22;7779;49.596;11.070;2023-07-13T13:40:54;29.30;33.00
15359;DHT22;7779;49.596;11.070;2023-07-13T13:43:25;29.20;33.20
15359;DHT22;7779;49.596;11.070;2023-07-13T13:45:54;29.10;32.10
15359;DHT22;7779;49.596;11.070;2023-07-13T13:48:29;29.10;33.00
15359;DHT22;7779;49.596;11.070;2023-07-13T13:50:58;29.00;32.70
15359;DHT22;7779;49.596;11.070;2023-07-13T13:53:25;29.00;33.10
15359;DHT22;7779;49.596;11.070;2023-07-13T13:55:52;28.90;33.20
15359;DHT22;7779;49.596;11.070;2023-07-13T13:58:19;28.90;33.20
15359;DHT22;7779;49.596;11.070;2023-07-13T14:00:46;28.90;33.30
15359;DHT22;7779;49.596;11.070;2023-07-13T14:03:20;28.80;33.20
15359;DHT22;7779;49.596;11.070;2023-07-13T14:05:47;28.80;32.90
15359;DHT22;7779;49.596;11.070;2023-07-13T14:08:19;28.80;33.20
15359;DHT22;7779;49.596;11.070;2023-07-13T14:10:49;28.70;32.70
15359;DHT22;7779;49.596;11.070;2023-07-13T14:13:22;28.70;32.90
15359;DHT22;7779;49.596;11.070;2023-07-13T14:15:53;28.60;32.60
15359;DHT22;7779;49.596;11.070;2023-07-13T14:18:20;28.60;32.90
15359;DHT22;7779;49.596;11.070;2023-07-13T14:20:47;28.50;32.80
15359;DHT22;7779;49.596;11.070;2023-07-13T14:23:15;28.50;32.80
15359;DHT22;7779;49.596;11.070;2023-07-13T14:25:42;28.50;32.90
15359;DHT22;7779;49.596;11.070;2023-07-13T14:28:21;28.40;32.90
15359;DHT22;7779;49.596;11.070;2023-07-13T14:30:49;28.40;32.70
15359;DHT22;7779;49.596;11.070;2023-07-13T14:33:15;28.40;33.10
15359;DHT22;7779;49.596;11.070;2023-07-13T14:35:41;28.40;33.20
15359;DHT22;7779;49.596;11.070;2023-07-13T14:38:13;28.50;33.30
15359;DHT22;7779;49.596;11.070;2023-07-13T14:40:42;28.50;33.30
15359;DHT22;7779;49.596;11.070;2023-07-13T14:43:10;28.60;33.40
15359;DHT22;7779;49.596;11.070;2023-07-13T14:45:40;28.60;33.20
15359;DHT22;7779;49.596;11.070;2023-07-13T14:48:17;28.60;33.10
15359;DHT22;7779;49.596;11.070;2023-07-13T14:50:45;28.60;33.20
15359;DHT22;7779;49.596;11.070;2023-07-13T14:53:12;28.70;33.30
15359;DHT22;7779;49.596;11.070;2023-07-13T14:55:39;28.70;33.20
15359;DHT22;7779;49.596;11.070;2023-07-13T14:58:06;28.80;33.20
15359;DHT22;7779;49.596;11.070;2023-07-13T15:00:32;28.90;33.10
15359;DHT22;7779;49.596;11.070;2023-07-13T15:03:00;28.90;33.00
15359;DHT22;7779;49.596;11.070;2023-07-13T15:05:28;28.90;32.90
15359;DHT22;7779;49.596;11.070;2023-07-13T15:08:01;28.90;32.70
15359;DHT22;7779;49.596;11.070;2023-07-13T15:10:31;28.90;32.50
15359;DHT22;7779;49.596;11.070;2023-07-13T15:13:00;28.90;32.50
15359;DHT22;7779;49.596;11.070;2023-07-13T15:15:39;28.90;32.60
15359;DHT22;7779;49.596;11.070;2023-07-13T15:18:09;28.90;32.70
15359;DHT22;7779;49.596;11.070;2023-07-13T15:20:37;28.90;32.80
15359;DHT22;7779;49.596;11.070;2023-07-13T15:23:04;28.80;32.80
15359;DHT22;7779;49.596;11.070;2023-07-13T15:25:32;28.90;32.90
15359;DHT22;7779;49.596;11.070;2023-07-13T15:27:59;28.80;32.70
15359;DHT22;7779;49.596;11.070;2023-07-13T15:30:29;28.80;32.80
15359;DHT22;7779;49.596;11.070;2023-07-13T15:33:10;28.80;32.70
15359;DHT22;7779;49.596;11.070;2023-07-13T15:35:38;28.80;32.60
15359;DHT22;7779;49.596;11.070;2023-07-13T15:38:18;28.80;32.70
15359;DHT22;7779;49.596;11.070;2023-07-13T15:40:50;28.80;32.50
15359;DHT22;7779;49.596;11.070;2023-07-13T15:43:18;28.70;32.60
15359;DHT22;7779;49.596;11.070;2023-07-13T15:45:45;28.70;32.80
15359;DHT22;7779;49.596;11.070;2023-07-13T15:48:21;28.60;32.80
15359;DHT22;7779;49.596;11.070;2023-07-13T15:50:54;28.60;32.90
15359;DHT22;7779;49.596;11.070;2023-07-13T15:53:28;28.60;32.90
15359;DHT22;7779;49.596;11.070;2023-07-13T15:55:57;28.60;32.90
15359;DHT22;7779;49.596;11.070;2023-07-13T15:58:23;28.60;32.90
15359;DHT22;7779;49.596;11.070;2023-07-13T16:00:50;28.60;32.80
15359;DHT22;7779;49.596;11.070;2023-07-13T16:03:17;28.60;32.70
15359;DHT22;7779;49.596;11.070;2023-07-13T16:05:44;28.60;32.60
15359;DHT22;7779;49.596;11.070;2023-07-13T16:08:31;28.50;32.60
15359;DHT22;7779;49.596;11.070;2023-07-13T16:11:00;28.50;32.50
15359;DHT22;7779;49.596;11.070;2023-07-13T16:13:25;28.40;32.70
15359;DHT22;7779;49.596;11.070;2023-07-13T16:15:53;28.40;32.80
15359;DHT22;7779;49.596;11.070;2023-07-13T16:18:21;28.40;32.80
15359;DHT22;7779;49.596;11.070;2023-07-13T16:20:48;28.40;33.00
15359;DHT22;7779;49.596;11.070;2023-07-13T16:23:15;28.30;33.10
15359;DHT22;7779;49.596;11.070;2023-07-13T16:25:43;28.30;33.00